createdAt,value
2023-01-08T00:04:16.413Z,62
2023-01-08T00:09:39.388Z,61.9
2023-01-08T00:14:46.444Z,61.9
2023-01-08T00:20:10.246Z,61.8
2023-01-08T00:25:32.663Z,61.8
2023-01-08T00:30:39.331Z,61.8
2023-01-08T00:36:03.398Z,61.7
2023-01-08T00:41:26.407Z,61.7
2023-01-08T00:46:49.096Z,61.6
2023-01-08T00:52:13.266Z,61.6
2023-01-08T00:57:20.681Z,61.5
2023-01-08T01:02:27.982Z,61.4
2023-01-08T01:07:52.418Z,61.4
2023-01-08T01:13:15.168Z,61.4
2023-01-08T01:18:22.758Z,61.3
2023-01-08T01:23:47.085Z,61.3
2023-01-08T01:29:09.839Z,61.2
2023-01-08T01:34:32.743Z,61.1
2023-01-08T01:39:41.386Z,61.1
2023-01-08T01:45:03.907Z,61.1
2023-01-08T01:50:10.865Z,61
2023-01-08T01:55:35.163Z,61
2023-01-08T02:00:57.925Z,60.9
2023-01-08T02:06:22.040Z,60.9
2023-01-08T02:11:46.592Z,60.8
2023-01-08T02:17:09.800Z,60.8
2023-01-08T02:22:16.578Z,60.8
2023-01-08T02:27:40.367Z,60.7
2023-01-08T02:33:03.215Z,60.6
2023-01-08T02:38:25.689Z,60.6
2023-01-08T02:43:33.996Z,60.6
2023-01-08T02:48:41.413Z,60.5
2023-01-08T02:54:04.316Z,60.4
2023-01-08T02:59:28.119Z,60.4
2023-01-08T03:04:52.744Z,60.4
2023-01-08T03:10:15.042Z,60.3
2023-01-08T03:15:39.226Z,60.3
2023-01-08T03:21:04.149Z,60.2
2023-01-08T03:26:11.593Z,60.1
2023-01-08T03:31:36.041Z,60.1
2023-01-08T03:36:58.437Z,60.1
2023-01-08T03:42:19.960Z,60
2023-01-08T03:47:28.800Z,59.9
2023-01-08T03:52:51.314Z,59.9
2023-01-08T03:58:14.120Z,59.9
2023-01-08T04:03:39.222Z,59.8
2023-01-08T04:09:01.584Z,59.8
2023-01-08T04:14:23.840Z,59.8
2023-01-08T04:19:48.822Z,59.6
2023-01-08T04:25:10.836Z,59.6
2023-01-08T04:30:17.288Z,59.6
2023-01-08T04:35:41.450Z,59.5
2023-01-08T04:41:03.989Z,59.4
2023-01-08T04:46:10.262Z,59.4
2023-01-08T04:51:34.299Z,59.4
2023-01-08T04:56:56.915Z,59.3
2023-01-08T05:02:20.852Z,59.3
2023-01-08T05:07:47.048Z,59.3
2023-01-08T05:12:54.806Z,59.2
2023-01-08T05:18:17.975Z,59.1
2023-01-08T05:23:44.084Z,59.1
2023-01-08T05:29:07.459Z,59.1
2023-01-08T05:34:30.157Z,59
2023-01-08T05:39:38.761Z,58.9
2023-01-08T05:44:45.889Z,58.9
2023-01-08T05:50:08.763Z,58.9
2023-01-08T05:55:32.223Z,58.8
2023-01-08T06:00:57.922Z,58.8
2023-01-08T06:06:20.938Z,58.8
2023-01-08T06:11:44.430Z,58.7
2023-01-08T06:17:07.461Z,58.6
2023-01-08T06:31:43.670Z,58.5
2023-01-08T06:37:06.307Z,58.4
2023-01-08T06:42:14.792Z,58.4
2023-01-08T06:47:39.841Z,58.4
2023-01-08T06:52:47.410Z,58.3
2023-01-08T06:58:31.896Z,58.3
2023-01-08T07:03:55.940Z,58.2
2023-01-08T07:09:19.259Z,58.1
2023-01-08T07:14:43.114Z,58.1
2023-01-08T07:20:06.039Z,58.1
2023-01-08T07:25:29.224Z,58.1
2023-01-08T07:30:46.203Z,57.9
2023-01-08T07:36:12.119Z,57.9
2023-01-08T07:41:35.545Z,57.9
2023-01-08T07:46:59.150Z,57.8
2023-01-08T08:02:39.794Z,57.7
2023-01-08T08:08:03.051Z,57.7
2023-01-08T08:13:25.800Z,57.6
2023-01-08T08:18:49.708Z,57.4
2023-01-08T08:24:12.435Z,57.3
2023-01-08T08:29:35.344Z,57.2
2023-01-08T08:34:59.471Z,57.1
2023-01-08T08:40:21.963Z,57.1
2023-01-08T08:45:46.896Z,57
2023-01-08T08:51:10.814Z,56.8
2023-01-08T08:56:35.150Z,56.6
2023-01-08T09:01:58.941Z,56.4
2023-01-08T09:07:24.209Z,56.3
2023-01-08T09:12:46.656Z,56.3
2023-01-08T09:18:09.533Z,56.1
2023-01-08T09:23:33.071Z,56.1
2023-01-08T09:28:55.936Z,56.1
2023-01-08T09:34:18.835Z,56
2023-01-08T09:39:42.524Z,55.9
2023-01-08T09:44:53.678Z,55.9
2023-01-08T09:50:03.367Z,55.8
2023-01-08T09:55:27.127Z,55.8
2023-01-08T10:01:00.458Z,55.7
2023-01-08T10:06:24.535Z,55.6
2023-01-08T10:11:48.570Z,55.6
2023-01-08T10:17:11.594Z,55.5
2023-01-08T10:22:34.432Z,55.4
2023-01-08T10:27:45.141Z,55.4
2023-01-08T10:33:08.962Z,55.3
2023-01-08T10:38:33.160Z,55.1
2023-01-08T10:43:56.827Z,54.8
2023-01-08T10:49:21.872Z,55.1
2023-01-08T10:54:28.620Z,55.4
2023-01-08T10:59:37.599Z,55.8
2023-01-08T11:04:45.343Z,56.2
2023-01-08T11:09:52.282Z,56.6
2023-01-08T11:15:15.605Z,57.1
2023-01-08T11:20:39.064Z,57.5
2023-01-08T11:26:03.513Z,57.8
2023-01-08T11:31:26.396Z,58.2
2023-01-08T11:36:49.368Z,58.5
2023-01-08T11:42:14.969Z,58.8
2023-01-08T11:47:38.229Z,59.2
2023-01-08T11:52:31.889Z,59.4
2023-01-08T11:57:38.543Z,59.6
2023-01-08T12:03:01.881Z,59.9
2023-01-08T12:08:24.009Z,60.1
2023-01-08T12:13:46.206Z,60.4
2023-01-08T12:18:53.786Z,60.5
2023-01-08T12:24:16.179Z,60.7
2023-01-08T12:29:52.190Z,60.8
2023-01-08T12:35:26.353Z,60.9
2023-01-08T12:40:49.299Z,61.1
2023-01-08T12:46:23.471Z,61.1
2023-01-08T12:51:45.743Z,61.2
2023-01-08T12:57:08.310Z,61.3
2023-01-08T13:02:32.735Z,61.3
2023-01-08T13:07:40.038Z,61.3
2023-01-08T13:13:02.929Z,61.3
2023-01-08T13:18:26.448Z,61.2
2023-01-08T13:23:33.832Z,61.3
2023-01-08T13:28:56.136Z,61.2
2023-01-08T13:33:47.347Z,61.2
2023-01-08T13:39:23.863Z,61.1
2023-01-08T13:44:34.767Z,61.1
2023-01-08T13:49:26.616Z,61.1
2023-01-08T13:54:49.473Z,61
2023-01-08T13:59:41.031Z,61
2023-01-08T14:05:04.823Z,60.9
2023-01-08T14:10:12.473Z,60.9
2023-01-08T14:15:35.374Z,60.9
2023-01-08T14:20:58.315Z,60.8
2023-01-08T14:26:21.498Z,60.8
2023-01-08T14:31:43.989Z,60.8
2023-01-08T14:37:06.709Z,60.8
2023-01-08T14:42:30.291Z,60.7
2023-01-08T14:47:46.636Z,60.6
2023-01-08T14:53:09.267Z,60.6
2023-01-08T14:58:32.353Z,60.6
2023-01-08T15:03:58.250Z,60.5
2023-01-08T15:09:20.379Z,60.5
2023-01-08T15:14:43.544Z,60.4
2023-01-08T15:20:06.283Z,60.4
2023-01-08T15:25:13.178Z,60.3
2023-01-08T15:30:36.343Z,60.3
2023-01-08T15:35:12.323Z,60.3
2023-01-08T15:40:06.472Z,60.3
2023-01-08T15:45:30.618Z,60.2
2023-01-08T15:50:38.514Z,60.1
2023-01-08T15:56:01.553Z,60.1
2023-01-08T16:01:24.638Z,60.1
2023-01-08T16:06:17.414Z,60
2023-01-08T16:11:08.749Z,60
2023-01-08T16:16:17.152Z,59.9
2023-01-08T16:21:40.152Z,59.9
2023-01-08T16:27:02.481Z,59.9
2023-01-08T16:32:27.647Z,59.8
2023-01-08T16:37:50.611Z,59.8
2023-01-08T16:42:57.962Z,59.7
2023-01-08T16:48:20.612Z,59.7
2023-01-08T16:53:12.681Z,59.6
2023-01-08T16:58:35.288Z,59.6
2023-01-08T17:03:58.993Z,59.6
2023-01-08T17:09:07.379Z,59.5
2023-01-08T17:14:14.081Z,59.4
2023-01-08T17:19:37.175Z,59.4
2023-01-08T17:24:44.561Z,59.4
2023-01-08T17:29:52.130Z,59.3
2023-01-08T17:35:15.236Z,59.3
2023-01-08T17:40:42.211Z,59.3
2023-01-08T17:46:05.743Z,59.2
2023-01-08T17:51:28.140Z,59.1
2023-01-08T17:56:36.181Z,59.1
2023-01-08T18:02:00.310Z,59.1
2023-01-08T18:07:24.515Z,59
2023-01-08T18:12:47.914Z,59
2023-01-08T18:17:39.255Z,58.9
2023-01-08T18:22:46.974Z,58.9
2023-01-08T18:28:10.274Z,58.9
2023-01-08T18:33:32.319Z,58.8
2023-01-08T18:38:55.693Z,58.8
2023-01-08T18:44:03.128Z,58.7
2023-01-08T18:49:26.367Z,58.7
2023-01-08T18:54:35.276Z,58.6
2023-01-08T19:05:06.575Z,58.5
2023-01-08T19:10:14.109Z,58.5
2023-01-08T19:15:23.815Z,58.4
2023-01-08T19:20:48.301Z,58.4
2023-01-08T19:25:55.512Z,58.4
2023-01-08T19:31:06.589Z,58.3
2023-01-08T19:36:32.523Z,58.3
2023-01-08T19:41:39.779Z,58.2
2023-01-08T19:47:03.035Z,58.2
2023-01-08T19:52:28.459Z,58.1
2023-01-08T19:57:55.848Z,58.1
2023-01-08T20:03:09.239Z,58.1
2023-01-08T20:08:25.373Z,58
2023-01-08T20:13:54.854Z,58
2023-01-08T20:19:12.340Z,57.9
2023-01-08T20:24:41.333Z,57.9
2023-01-08T20:29:50.267Z,57.8
2023-01-08T20:34:44.352Z,57.8
2023-01-08T20:45:28.923Z,57.7
2023-01-08T20:51:09.248Z,57.7
2023-01-08T20:56:35.033Z,57.6
2023-01-08T21:01:26.202Z,57.6
2023-01-08T21:06:34.064Z,57.6
2023-01-08T21:11:40.939Z,57.5
2023-01-08T21:16:33.042Z,57.4
2023-01-08T21:21:40.822Z,57.4
2023-01-08T21:26:16.320Z,57.4
2023-01-08T21:31:07.542Z,57.3
2023-01-08T21:36:14.462Z,57.3
2023-01-08T21:41:21.776Z,57.3
2023-01-08T21:46:28.954Z,57.2
2023-01-08T21:51:36.493Z,57.2
2023-01-08T21:56:45.464Z,57.1
2023-01-08T22:01:52.415Z,57.1
2023-01-08T22:06:59.574Z,57.1
2023-01-08T22:12:22.669Z,57
2023-01-08T22:17:45.776Z,56.9
2023-01-08T22:22:52.947Z,56.9
2023-01-08T22:28:00.209Z,56.9
2023-01-08T22:33:23.049Z,56.8
2023-01-08T22:38:32.413Z,56.8
2023-01-08T22:43:57.745Z,56.8
2023-01-08T22:49:05.054Z,56.7
2023-01-08T22:54:27.715Z,56.7
2023-01-08T22:59:50.599Z,56.6
2023-01-08T23:05:13.100Z,56.6
2023-01-08T23:10:20.697Z,56.6
2023-01-08T23:15:12.341Z,56.5
2023-01-08T23:20:11.022Z,56.4
2023-01-08T23:25:33.816Z,56.4
2023-01-08T23:30:57.012Z,56.4
2023-01-08T23:36:38.594Z,56.4
2023-01-08T23:41:59.852Z,56.3
2023-01-08T23:47:07.950Z,56.3
2023-01-08T23:52:14.502Z,56.2
2023-01-08T23:57:36.819Z,56.2
